Friday, March 06, 2015
11:04 UTC
  |  Log In   |  Register Free
Airport Search:

South Big Horn County Airport
(KGEY)

South Big Horn County Airport Diagram
No Airport Diagram Available

FAA data valid effective March 05, 2015 - April 30, 2015 (unless otherwise noted).

 
 
 
 
 
 
 
 
 
 
 
 
 
 

Current Aviation Weather for South Big Horn County Airport (KGEY)

The most recent METAR observation for KGEY was updated at: 1013
METAR Summary (Translated METAR)
KGEY
060953Z AUTO 12004KT 10SM CLR M06/M09 A3023 RMK AO2 SLP271 T10561089
KU68
060955Z AUTO 12005KT 10SM CLR M02/M11 A3021 RMK AO2
(28.3 nm NW from KGEY)
KWRL
060953Z AUTO 00000KT 10SM CLR M06/M09 A3022 RMK AO2 SLP268 T10611094
(33.8 nm SE from KGEY)
TAF Summary (Translated TAF)
KWRL
(33.8 nm SE from KGEY)
060527Z 0606/0706 VRB06KT P6SM SCT120
  Airport Weather Conditions for KGEY

Current weather conditions are
not available for GEY


The nearest NOAA weather station
is at U68, (28.3 nm NW from GEY)
  
 Current Weather at U68
28° F
Fair
Southeast winds at 6.9 mph
U68 NOAA Radar

Pressure: 30.22 in
Humidity: 51%
Wind: Southeast at 6.9 MPH (6 KT)
Dew Point: 12.2°F
Visibility: 10.00 mi


Airport Weather Forecast for KGEY

Translated METAR and TAF for KGEY
Translated METAR for KGEY (1104 UTC 06 March 2015)
found at http://aviationweather.gov/adds/metars/
 
METAR text: KGEY 061053Z AUTO 13005KT 10SM CLR M06/M09 A3023 RMK AO2 SLP270 T10561094
Conditions at: KGEY (GREYBULL , WY, US) observed 1053 UTC 06 March 2015
Temperature: -5.6°C (22°F)
Dewpoint: -9.4°C (15°F) [RH = 75%]
Pressure (altimeter): 30.23 inches Hg (1023.8 mb)
[Sea-level pressure: 1027.0 mb]
Winds: from the SE (130 degrees) at 6 MPH (5 knots; 2.6 m/s)
Visibility: 10 or more miles (16+ km)
Ceiling: at least 12,000 feet AGL
Clouds: sky clear below 12,000 feet AGL
Weather: automated observation with no human augmentation;
there may or may not be significant weather present at this time
Translated TAF for KGEY

There is no translated TAF available for this airport

Find All Airport Services Find A Hotel Find A Rental Car Find A Golf Course Find A Restaurant $100 Hamburger



FBO's on the Field
FBO Company Facility Photos Services Transportation Aviation Fuel Prices: Prices include tax
Catering Weather Repair Courtesy Rental Type 100LL JetA JetA+ MOGAS 8087
 
B & G Industries, LLC

This FBO has not yet been rated
FS:Independent
Last Updated: Feb-04
Login to update fuel prices
SS:
Contact B & G Industries, LLCMore FBO Information
 
South Big Horn County Airport

This FBO has not yet been rated
FS:Independent
Last Updated: Feb-04
Login to update fuel prices
SS:
Contact South Big Horn County AirportMore FBO Information
 
Add another FBO Facility Photos Catering Weather Repair Courtesy Rental Type 100LL JetA JetA+ MOGAS 8087
Services Transportation Aviation Fuel Prices: Prices include tax


model-print
model-print
model-print
model-print